ALA weather

Almaty Airport
Almaty, Almaty Region, Kazakhstan

Public forecast

Using degrees Celsius for public forecast. Weather courtesy of forecast.io.

Current aviation weather report (METAR) for Almaty Airport

Retrieved 2019/11/22 06:30 UTC (0 seconds ago):

UAAA 220630Z 03002MPS 350V070 9999 SCT100 BKN200 M05/M11 Q1029 R88/91//50 NOSIG

Aviation forecast (TAF) for Almaty Airport

Retrieved 2019/11/22 06:21 UTC (0 seconds ago):

TAF UAAA 220500Z 2206/2306 34003G09MPS 9999 BKN030 BKN100 TXM04/2206Z TNM10/2301Z TEMPO 2206/2209 24003MPS 5000 BR BECMG 2212/2213 16003MPS 3100 BR FU TEMPO 2212/2222 1000 BKN011 BKN100 TEMPO 2222/2303 26003MPS 0500 FZFG BKN005